createdAt,value
2022-12-28T00:00:02.651Z,64.73
2022-12-28T00:02:31.122Z,64.67
2022-12-28T00:04:59.033Z,64.52
2022-12-28T00:07:26.970Z,64.38
2022-12-28T00:09:54.853Z,64.39
2022-12-28T00:12:24.136Z,64.65
2022-12-28T00:14:52.043Z,64.69
2022-12-28T00:17:19.936Z,64.34
2022-12-28T00:19:47.847Z,64.62
2022-12-28T00:22:15.750Z,64.31
2022-12-28T00:24:43.622Z,64.51
2022-12-28T00:27:14.097Z,64.28
2022-12-28T00:29:43.453Z,64.10
2022-12-28T00:32:11.363Z,64.46
2022-12-28T00:34:39.289Z,64.39
2022-12-28T00:37:10.692Z,64.15
2022-12-28T00:39:40.943Z,64.07
2022-12-28T00:42:08.910Z,64.06
2022-12-28T00:44:36.849Z,63.99
2022-12-28T00:47:06.214Z,63.88
2022-12-28T00:49:34.115Z,64.08
2022-12-28T00:52:01.995Z,64.00
2022-12-28T00:54:30.195Z,63.91
2022-12-28T00:56:58.113Z,63.91
2022-12-28T00:59:26.007Z,63.74
2022-12-28T01:01:54.045Z,63.79
2022-12-28T01:04:23.710Z,63.77
2022-12-28T01:06:51.641Z,63.58
2022-12-28T01:09:19.537Z,63.44
2022-12-28T01:11:47.498Z,63.20
2022-12-28T01:14:15.416Z,63.23
2022-12-28T01:16:43.323Z,63.15
2022-12-28T01:19:11.546Z,63.15
2022-12-28T01:21:41.052Z,63.26
2022-12-28T01:24:10.387Z,63.10
2022-12-28T01:26:38.315Z,63.24
2022-12-28T01:29:06.190Z,63.03
2022-12-28T01:31:34.126Z,63.32
2022-12-28T01:34:02.371Z,63.42
2022-12-28T01:36:31.492Z,63.09
2022-12-28T01:39:02.735Z,63.38
2022-12-28T01:41:31.075Z,63.39
2022-12-28T01:44:44.566Z,63.29
2022-12-28T01:47:17.008Z,63.14
2022-12-28T01:49:48.094Z,63.34
2022-12-28T01:52:17.453Z,63.23
2022-12-28T01:54:47.560Z,63.23
2022-12-28T01:57:15.494Z,63.19
2022-12-28T01:59:46.254Z,62.88
2022-12-28T02:02:14.257Z,63.17
2022-12-28T02:04:42.262Z,63.20
2022-12-28T02:07:10.278Z,63.37
2022-12-28T02:09:39.907Z,62.88
2022-12-28T02:12:09.300Z,63.29
2022-12-28T02:14:37.219Z,63.03
2022-12-28T02:17:05.404Z,63.01
2022-12-28T02:19:37.504Z,63.25
2022-12-28T02:22:18.418Z,63.01
2022-12-28T02:25:12.502Z,63.17
2022-12-28T02:27:47.664Z,63.18
2022-12-28T02:30:16.927Z,63.15
2022-12-28T02:32:56.493Z,62.81
2022-12-28T02:35:29.025Z,62.79
2022-12-28T02:37:57.888Z,63.03
2022-12-28T02:40:27.529Z,63.18
2022-12-28T02:42:55.920Z,63.17
2022-12-28T02:45:51.874Z,62.99
2022-12-28T02:48:37.474Z,63.06
2022-12-28T02:51:15.236Z,62.96
2022-12-28T02:54:05.169Z,63.19
2022-12-28T02:56:34.888Z,63.09
2022-12-28T02:59:22.071Z,63.29
2022-12-28T03:02:26.101Z,63.31
2022-12-28T03:05:08.836Z,63.14
2022-12-28T03:07:57.045Z,63.34
2022-12-28T03:10:26.772Z,63.10
2022-12-28T03:12:57.820Z,63.22
2022-12-28T03:15:30.705Z,63.01
2022-12-28T03:18:18.155Z,63.29
2022-12-28T03:21:05.117Z,63.51
2022-12-28T03:23:50.568Z,63.50
2022-12-28T03:26:36.003Z,63.70
2022-12-28T03:29:21.152Z,63.73
2022-12-28T03:31:49.068Z,63.77
2022-12-28T03:34:16.963Z,63.68
2022-12-28T03:36:49.763Z,63.60
2022-12-28T03:39:23.743Z,63.77
2022-12-28T03:42:10.916Z,63.68
2022-12-28T03:44:38.824Z,63.75
2022-12-28T03:47:08.091Z,64.11
2022-12-28T03:49:36.055Z,64.20
2022-12-28T03:52:05.643Z,64.47
2022-12-28T03:54:33.531Z,64.30
2022-12-28T03:57:01.453Z,64.76
2022-12-28T03:59:29.341Z,64.63
2022-12-28T04:01:57.313Z,64.91
2022-12-28T04:04:25.345Z,64.75
2022-12-28T04:06:53.278Z,64.56
2022-12-28T04:09:23.123Z,64.50
2022-12-28T04:11:50.998Z,64.44
2022-12-28T04:14:18.888Z,64.40
2022-12-28T04:16:46.780Z,64.44
2022-12-28T04:19:14.728Z,64.39
2022-12-28T04:21:42.614Z,64.63
2022-12-28T04:24:10.545Z,64.68
2022-12-28T04:26:39.857Z,64.63
2022-12-28T04:29:07.731Z,64.64
2022-12-28T04:31:35.676Z,64.98
2022-12-28T04:34:03.662Z,64.98
2022-12-28T04:36:31.587Z,64.70
2022-12-28T04:38:59.637Z,64.76
2022-12-28T04:41:27.818Z,65.06
2022-12-28T04:43:57.201Z,64.82
2022-12-28T04:46:25.224Z,64.46
2022-12-28T04:48:53.157Z,64.54
2022-12-28T04:51:21.800Z,64.49
2022-12-28T04:53:49.777Z,64.58
2022-12-28T04:56:18.320Z,64.53
2022-12-28T04:58:46.994Z,64.71
2022-12-28T05:01:17.172Z,64.77
2022-12-28T05:03:54.187Z,64.67
2022-12-28T05:06:23.856Z,64.67
2022-12-28T05:08:51.846Z,64.65
2022-12-28T05:11:20.599Z,64.79
2022-12-28T05:13:48.575Z,64.77
2022-12-28T05:16:18.710Z,64.69
2022-12-28T05:18:46.637Z,64.85
2022-12-28T05:21:15.284Z,64.65
2022-12-28T05:23:43.174Z,64.93
2022-12-28T05:26:12.596Z,64.75
2022-12-28T05:28:40.637Z,64.99
2022-12-28T05:31:09.681Z,64.76
2022-12-28T05:33:39.144Z,64.62
2022-12-28T05:36:07.778Z,64.55
2022-12-28T05:38:35.811Z,64.80
2022-12-28T05:41:07.666Z,64.81
2022-12-28T05:43:35.700Z,64.56
2022-12-28T05:46:04.408Z,64.68
2022-12-28T05:48:33.392Z,64.64
2022-12-28T05:51:03.801Z,64.60
2022-12-28T05:53:31.708Z,64.45
2022-12-28T05:56:03.750Z,64.69
2022-12-28T05:58:31.678Z,64.62
2022-12-28T06:01:07.126Z,64.82
2022-12-28T06:03:35.376Z,64.92
2022-12-28T06:06:09.579Z,64.88
2022-12-28T06:08:37.539Z,65.05
2022-12-28T06:11:06.260Z,64.78
2022-12-28T06:13:34.384Z,64.95
2022-12-28T06:16:06.678Z,65.04
2022-12-28T06:18:34.629Z,65.03
2022-12-28T06:21:03.789Z,64.80
2022-12-28T06:23:33.138Z,64.88
2022-12-28T06:26:01.144Z,64.90
2022-12-28T06:28:29.031Z,65.05
2022-12-28T06:31:03.239Z,64.84
2022-12-28T06:33:31.262Z,64.96
2022-12-28T06:35:59.221Z,64.88
2022-12-28T06:38:27.464Z,64.69
2022-12-28T06:41:13.240Z,65.06
2022-12-28T06:43:42.447Z,64.67
2022-12-28T06:46:10.453Z,64.64
2022-12-28T06:48:38.437Z,64.71
2022-12-28T06:51:07.317Z,64.84
2022-12-28T06:53:36.233Z,64.76
2022-12-28T06:56:06.628Z,64.69
2022-12-28T06:58:34.550Z,64.62
2022-12-28T07:01:07.487Z,64.74
2022-12-28T07:03:35.501Z,65.08
2022-12-28T07:06:03.659Z,64.92
2022-12-28T07:08:31.705Z,64.76
2022-12-28T07:11:03.438Z,64.81
2022-12-28T07:13:32.791Z,64.90
2022-12-28T07:16:03.359Z,64.64
2022-12-28T07:18:31.289Z,64.94
2022-12-28T07:21:02.483Z,64.88
2022-12-28T07:23:31.513Z,64.81
2022-12-28T07:25:59.660Z,64.74
2022-12-28T07:28:27.570Z,65.02
2022-12-28T07:30:57.138Z,65.14
2022-12-28T07:33:25.093Z,64.97
2022-12-28T07:35:53.054Z,64.78
2022-12-28T07:38:21.700Z,64.81
2022-12-28T07:40:49.720Z,65.13
2022-12-28T07:43:17.646Z,64.87
2022-12-28T07:45:45.738Z,65.27
2022-12-28T07:48:15.043Z,64.86
2022-12-28T07:50:42.930Z,64.88
2022-12-28T07:53:10.781Z,65.25
2022-12-28T07:55:40.415Z,64.97
2022-12-28T07:58:08.355Z,64.97
2022-12-28T08:00:36.388Z,64.87
2022-12-28T08:03:04.427Z,65.25
2022-12-28T08:05:34.444Z,65.30
2022-12-28T08:08:03.840Z,65.18
2022-12-28T08:10:32.165Z,65.12
2022-12-28T08:13:00.314Z,65.09
2022-12-28T08:15:28.238Z,64.95
2022-12-28T08:17:56.202Z,64.96
2022-12-28T08:20:24.258Z,65.04
2022-12-28T08:22:53.528Z,64.97
2022-12-28T08:25:21.679Z,65.12
2022-12-28T08:27:49.623Z,64.97
2022-12-28T08:30:17.777Z,65.00
2022-12-28T08:32:45.740Z,65.03
2022-12-28T08:35:13.672Z,65.02
2022-12-28T08:37:44.729Z,65.05
2022-12-28T08:40:14.403Z,65.08
2022-12-28T08:42:42.296Z,64.95
2022-12-28T08:45:10.687Z,65.07
2022-12-28T08:47:38.562Z,65.15
2022-12-28T08:50:07.789Z,65.22
2022-12-28T08:52:35.767Z,65.45
2022-12-28T08:55:03.721Z,65.52
2022-12-28T08:57:33.851Z,65.20
2022-12-28T09:00:01.718Z,65.45
2022-12-28T09:02:29.923Z,65.29
2022-12-28T09:04:58.037Z,65.12
2022-12-28T09:07:25.922Z,65.38
2022-12-28T09:09:53.857Z,65.16
2022-12-28T09:12:21.773Z,64.99
2022-12-28T09:14:51.098Z,65.03
2022-12-28T09:17:18.996Z,65.36
2022-12-28T09:19:47.179Z,65.06
2022-12-28T09:22:15.105Z,65.21
2022-12-28T09:24:43.122Z,65.35
2022-12-28T09:27:11.029Z,65.48
2022-12-28T09:29:38.913Z,65.46
2022-12-28T09:32:08.245Z,65.42
2022-12-28T09:34:37.802Z,65.15
2022-12-28T09:37:06.622Z,65.22
2022-12-28T09:39:34.584Z,65.42
2022-12-28T09:42:03.793Z,65.49
2022-12-28T09:44:39.784Z,65.47
2022-12-28T09:47:17.334Z,65.60
2022-12-28T09:49:47.688Z,65.46
2022-12-28T09:52:26.286Z,65.21
2022-12-28T09:54:54.265Z,65.43
2022-12-28T09:57:22.177Z,65.22
2022-12-28T09:59:50.043Z,65.30
2022-12-28T10:02:20.985Z,65.42
2022-12-28T10:04:49.854Z,65.57
2022-12-28T10:07:17.773Z,65.35
2022-12-28T10:09:45.746Z,65.51
2022-12-28T10:12:15.382Z,65.47
2022-12-28T10:14:43.964Z,65.64
2022-12-28T10:17:12.817Z,65.57
2022-12-28T10:19:42.122Z,65.80
2022-12-28T10:22:12.722Z,65.44
2022-12-28T10:24:40.766Z,65.96
2022-12-28T10:27:21.028Z,65.57
2022-12-28T10:29:50.829Z,65.55
2022-12-28T10:32:19.376Z,65.74
2022-12-28T10:34:57.019Z,66.06
2022-12-28T10:37:25.466Z,65.97
2022-12-28T10:39:55.693Z,65.84
2022-12-28T10:42:26.093Z,66.13
2022-12-28T10:44:54.237Z,65.85
2022-12-28T10:47:30.364Z,65.81
2022-12-28T10:52:57.837Z,66.16
2022-12-28T10:55:30.219Z,65.99
2022-12-28T11:00:55.566Z,65.70
2022-12-28T11:03:28.296Z,65.82
2022-12-28T11:06:14.012Z,66.11
2022-12-28T11:08:42.460Z,66.08
2022-12-28T11:11:20.910Z,65.91
2022-12-28T11:13:51.520Z,65.92
2022-12-28T11:16:19.514Z,65.76
2022-12-28T11:18:47.449Z,66.08
2022-12-28T11:21:20.795Z,65.95
2022-12-28T11:23:49.174Z,65.97
2022-12-28T11:26:18.097Z,65.93
2022-12-28T11:28:46.182Z,65.83
2022-12-28T11:31:19.860Z,66.26
2022-12-28T11:33:49.254Z,66.12
2022-12-28T11:36:19.298Z,66.62
2022-12-28T11:38:47.904Z,66.38
2022-12-28T11:41:51.235Z,66.75
2022-12-28T11:44:49.761Z,66.40
2022-12-28T11:47:34.164Z,66.20
2022-12-28T11:50:44.121Z,66.18
2022-12-28T11:53:24.369Z,66.33
2022-12-28T11:56:00.610Z,66.37
2022-12-28T11:58:46.999Z,66.32
2022-12-28T12:01:42.919Z,66.19
2022-12-28T12:04:19.118Z,66.21
2022-12-28T12:07:31.672Z,66.31
2022-12-28T12:10:29.878Z,66.50
2022-12-28T12:13:01.343Z,66.48
2022-12-28T12:15:41.176Z,66.12
2022-12-28T12:18:15.172Z,66.32
2022-12-28T12:20:51.870Z,66.15
2022-12-28T12:23:40.523Z,66.02
2022-12-28T12:26:22.187Z,66.37
2022-12-28T12:28:51.108Z,66.47
2022-12-28T12:31:24.733Z,66.07
2022-12-28T12:33:52.708Z,66.16
2022-12-28T12:36:32.303Z,66.23
2022-12-28T12:39:18.726Z,66.50
2022-12-28T12:41:51.874Z,66.08
2022-12-28T12:44:23.411Z,66.02
2022-12-28T12:47:08.158Z,65.69
2022-12-28T12:49:47.856Z,65.21
2022-12-28T12:52:25.142Z,65.41
2022-12-28T12:55:00.221Z,65.12
2022-12-28T12:57:32.292Z,65.12
2022-12-28T13:00:05.325Z,64.97
2022-12-28T13:03:04.381Z,64.59
2022-12-28T13:05:32.390Z,64.12
2022-12-28T13:08:00.347Z,64.51
2022-12-28T13:10:31.021Z,63.93
2022-12-28T13:13:01.043Z,63.86
2022-12-28T13:15:29.013Z,63.70
2022-12-28T13:18:18.209Z,63.28
2022-12-28T13:20:55.791Z,63.62
2022-12-28T13:23:23.838Z,63.23
2022-12-28T13:25:52.736Z,63.22
2022-12-28T13:28:23.835Z,62.93
2022-12-28T13:31:05.279Z,62.46
2022-12-28T13:33:33.392Z,62.70
2022-12-28T13:36:06.687Z,62.14
2022-12-28T13:38:34.671Z,61.82
2022-12-28T13:41:03.149Z,61.50
2022-12-28T13:43:56.376Z,61.80
2022-12-28T13:46:25.022Z,61.82
2022-12-28T13:48:53.775Z,61.81
2022-12-28T13:51:21.736Z,62.38
2022-12-28T13:53:51.100Z,62.60
2022-12-28T13:56:19.491Z,62.54
2022-12-28T13:58:53.765Z,62.68
2022-12-28T14:01:23.604Z,62.71
2022-12-28T14:03:51.666Z,63.08
2022-12-28T14:06:19.681Z,62.79
2022-12-28T14:08:47.599Z,62.65
2022-12-28T14:11:15.543Z,62.96
2022-12-28T14:13:43.529Z,63.13
2022-12-28T14:16:13.010Z,63.21
2022-12-28T14:18:41.265Z,63.56
2022-12-28T14:21:09.187Z,63.62
2022-12-28T14:23:38.023Z,63.33
2022-12-28T14:26:06.731Z,63.24
2022-12-28T14:28:36.331Z,63.15
2022-12-28T14:31:04.484Z,62.57
2022-12-28T14:33:35.470Z,62.74
2022-12-28T14:36:04.304Z,61.95
2022-12-28T14:38:33.841Z,61.71
2022-12-28T14:41:02.177Z,61.11
2022-12-28T14:43:30.738Z,60.83
2022-12-28T14:46:05.872Z,60.87
2022-12-28T14:48:40.332Z,60.58
2022-12-28T14:51:25.790Z,60.09
2022-12-28T14:54:19.687Z,59.58
2022-12-28T14:56:48.663Z,59.10
2022-12-28T14:59:18.913Z,58.89
2022-12-28T15:01:47.516Z,58.43
2022-12-28T15:04:28.264Z,58.19
2022-12-28T15:06:56.152Z,58.44
2022-12-28T15:09:24.063Z,57.58
2022-12-28T15:12:09.489Z,57.94
2022-12-28T15:14:37.709Z,57.89
2022-12-28T15:17:05.826Z,58.05
2022-12-28T15:19:35.996Z,57.85
2022-12-28T15:22:03.914Z,57.35
2022-12-28T15:24:34.314Z,57.54
2022-12-28T15:27:02.957Z,57.68
2022-12-28T15:32:20.051Z,57.08
2022-12-28T15:34:49.324Z,57.28
2022-12-28T15:37:17.458Z,57.07
2022-12-28T15:39:45.409Z,56.99
2022-12-28T15:42:13.370Z,56.98
2022-12-28T15:44:41.235Z,56.54
2022-12-28T15:47:09.402Z,56.84
2022-12-28T15:49:37.350Z,56.45
2022-12-28T15:52:06.750Z,56.66
2022-12-28T15:54:34.681Z,56.40
2022-12-28T15:57:02.598Z,57.04
2022-12-28T15:59:30.815Z,56.78
2022-12-28T16:01:59.019Z,56.59
2022-12-28T16:04:27.214Z,56.78
2022-12-28T16:06:55.216Z,56.57
2022-12-28T16:09:24.745Z,56.41
2022-12-28T16:11:55.309Z,56.22
2022-12-28T16:14:23.484Z,56.60
2022-12-28T16:16:51.549Z,56.40
2022-12-28T16:19:19.952Z,56.58
2022-12-28T16:21:53.359Z,56.26
2022-12-28T16:24:22.084Z,56.14
2022-12-28T16:26:51.936Z,56.49
2022-12-28T16:29:20.044Z,56.40
2022-12-28T16:31:48.076Z,56.41
2022-12-28T16:34:18.600Z,56.33
2022-12-28T16:36:46.766Z,56.68
2022-12-28T16:39:15.908Z,56.49
2022-12-28T16:41:44.003Z,56.41
2022-12-28T16:44:15.882Z,55.94
2022-12-28T16:46:43.796Z,56.50
2022-12-28T16:49:11.997Z,56.13
2022-12-28T16:51:40.167Z,56.13
2022-12-28T16:54:08.089Z,56.25
2022-12-28T16:56:36.052Z,56.42
2022-12-28T16:59:04.010Z,55.88
2022-12-28T17:01:33.443Z,56.07
2022-12-28T17:04:04.013Z,56.57
2022-12-28T17:06:32.612Z,56.13
2022-12-28T17:09:02.023Z,56.05
2022-12-28T17:11:29.965Z,56.04
2022-12-28T17:14:01.531Z,55.88
2022-12-28T17:16:29.647Z,56.08
2022-12-28T17:18:58.988Z,55.82
2022-12-28T17:21:26.955Z,56.21
2022-12-28T17:23:54.919Z,56.16
2022-12-28T17:26:22.881Z,56.37
2022-12-28T17:28:50.812Z,56.35
2022-12-28T17:31:19.995Z,56.55
2022-12-28T17:33:48.182Z,56.05
2022-12-28T17:36:17.627Z,56.12
2022-12-28T17:38:45.665Z,56.11
2022-12-28T17:41:14.495Z,56.06
2022-12-28T17:43:47.482Z,56.54
2022-12-28T17:46:40.934Z,56.16
2022-12-28T17:49:24.028Z,56.20
2022-12-28T17:52:06.412Z,55.79
2022-12-28T17:54:34.410Z,56.18
2022-12-28T17:57:02.366Z,55.91
2022-12-28T17:59:30.569Z,56.03
2022-12-28T18:02:01.312Z,56.12
2022-12-28T18:04:30.241Z,55.87
2022-12-28T18:07:00.638Z,56.17
2022-12-28T18:09:29.757Z,56.33
2022-12-28T18:11:58.121Z,56.29
2022-12-28T18:14:26.286Z,56.16
2022-12-28T18:16:54.461Z,56.32
2022-12-28T18:19:22.730Z,56.58
2022-12-28T18:21:50.597Z,56.28
2022-12-28T18:24:21.332Z,56.05
2022-12-28T18:26:49.533Z,56.32
2022-12-28T18:29:17.422Z,56.05
2022-12-28T18:31:49.453Z,56.49
2022-12-28T18:34:20.119Z,56.58
2022-12-28T18:36:54.795Z,56.19
2022-12-28T18:39:30.434Z,56.67
2022-12-28T18:42:05.602Z,56.63
2022-12-28T18:44:35.554Z,57.08
2022-12-28T18:47:03.494Z,57.50
2022-12-28T18:49:35.630Z,57.02
2022-12-28T18:52:19.501Z,57.40
2022-12-28T18:55:06.077Z,57.86
2022-12-28T18:57:34.166Z,58.15
2022-12-28T19:00:02.439Z,58.51
2022-12-28T19:02:39.096Z,58.81
2022-12-28T19:05:09.710Z,58.76
2022-12-28T19:07:38.704Z,58.73
2022-12-28T19:10:16.157Z,58.45
2022-12-28T19:12:49.226Z,57.99
2022-12-28T19:15:22.005Z,58.14
2022-12-28T19:18:09.396Z,57.97
2022-12-28T19:20:37.543Z,57.20
2022-12-28T19:23:07.561Z,57.44
2022-12-28T19:25:40.987Z,57.51
2022-12-28T19:28:09.020Z,57.14
2022-12-28T19:30:37.355Z,57.14
2022-12-28T19:33:08.731Z,57.35
2022-12-28T19:35:38.168Z,57.42
2022-12-28T19:38:17.209Z,57.14
2022-12-28T19:40:52.015Z,56.74
2022-12-28T19:43:22.589Z,57.03
2022-12-28T19:45:55.945Z,56.78
2022-12-28T19:48:42.047Z,56.63
2022-12-28T19:51:10.583Z,56.63
2022-12-28T19:53:47.907Z,56.60
2022-12-28T19:56:20.690Z,56.52
2022-12-28T19:58:48.868Z,55.90
2022-12-28T20:01:19.219Z,55.90
2022-12-28T20:03:47.688Z,55.85
2022-12-28T20:06:18.176Z,55.83
2022-12-28T20:08:46.256Z,56.45
2022-12-28T20:11:15.123Z,56.18
2022-12-28T20:13:44.677Z,55.83
2022-12-28T20:16:22.028Z,55.88
2022-12-28T20:18:50.827Z,55.77
2022-12-28T20:21:20.552Z,56.17
2022-12-28T20:23:53.047Z,55.99
2022-12-28T20:26:25.100Z,56.16
2022-12-28T20:28:57.759Z,56.12
2022-12-28T20:31:31.074Z,56.15
2022-12-28T20:34:04.889Z,56.56
2022-12-28T20:36:34.714Z,56.30
2022-12-28T20:39:02.862Z,56.42
2022-12-28T20:41:48.519Z,56.28
2022-12-28T20:44:18.778Z,56.44
2022-12-28T20:46:46.730Z,56.12
2022-12-28T20:49:14.651Z,56.44
2022-12-28T20:51:42.649Z,55.76
2022-12-28T20:54:10.785Z,55.08
2022-12-28T20:56:41.716Z,55.25
2022-12-28T20:59:09.889Z,55.29
2022-12-28T21:01:39.311Z,55.00
2022-12-28T21:04:07.471Z,54.59
2022-12-28T21:06:35.449Z,54.85
2022-12-28T21:09:03.918Z,54.68
2022-12-28T21:11:33.265Z,54.89
2022-12-28T21:14:01.259Z,54.64
2022-12-28T21:16:29.438Z,54.78
2022-12-28T21:18:58.764Z,54.84
2022-12-28T21:21:26.648Z,54.50
2022-12-28T21:23:54.548Z,54.51
2022-12-28T21:26:22.611Z,54.42
2022-12-28T21:28:50.494Z,54.88
2022-12-28T21:31:18.440Z,54.44
2022-12-28T21:33:46.612Z,54.59
2022-12-28T21:36:16.628Z,54.40
2022-12-28T21:38:44.971Z,54.17
2022-12-28T21:41:14.015Z,54.24
2022-12-28T21:43:41.907Z,54.17
2022-12-28T21:46:10.602Z,53.94
2022-12-28T21:48:38.515Z,53.76
2022-12-28T21:51:27.667Z,53.83
2022-12-28T21:53:56.979Z,53.79
2022-12-28T21:56:25.025Z,54.02
2022-12-28T21:58:53.093Z,54.08
2022-12-28T22:01:38.532Z,55.20
2022-12-28T22:04:23.805Z,55.89
2022-12-28T22:06:51.652Z,56.56
2022-12-28T22:09:38.546Z,56.97
2022-12-28T22:12:24.594Z,57.15
2022-12-28T22:15:13.727Z,57.48
2022-12-28T22:17:41.605Z,57.09
2022-12-28T22:20:10.088Z,56.97
2022-12-28T22:22:38.023Z,56.70
2022-12-28T22:25:07.705Z,56.37
2022-12-28T22:27:35.723Z,56.56
2022-12-28T22:30:03.810Z,56.70
2022-12-28T22:32:31.701Z,56.54
2022-12-28T22:34:59.722Z,56.27
2022-12-28T22:37:27.602Z,55.88
2022-12-28T22:39:55.519Z,55.88
2022-12-28T22:42:24.842Z,55.83
2022-12-28T22:44:52.765Z,55.42
2022-12-28T22:47:20.686Z,55.50
2022-12-28T22:49:48.610Z,55.43
2022-12-28T22:52:16.507Z,55.63
2022-12-28T22:54:46.485Z,55.35
2022-12-28T22:57:14.351Z,55.60
2022-12-28T22:59:43.621Z,55.62
2022-12-28T23:02:11.735Z,56.01
2022-12-28T23:04:39.812Z,55.92
2022-12-28T23:07:07.700Z,56.13
2022-12-28T23:09:35.639Z,55.78
2022-12-28T23:12:03.561Z,55.89
2022-12-28T23:14:48.922Z,55.72
2022-12-28T23:17:18.223Z,55.78
2022-12-28T23:20:03.880Z,55.38
2022-12-28T23:22:50.479Z,55.98
2022-12-28T23:25:36.850Z,55.87
2022-12-28T23:28:07.075Z,56.18
2022-12-28T23:30:35.125Z,56.04
2022-12-28T23:33:04.626Z,55.82
2022-12-28T23:35:32.540Z,55.68
2022-12-28T23:38:00.459Z,55.62
2022-12-28T23:40:28.639Z,55.75
2022-12-28T23:42:56.522Z,55.64
2022-12-28T23:45:24.571Z,55.85
2022-12-28T23:47:53.548Z,55.79
2022-12-28T23:50:22.962Z,55.79
2022-12-28T23:52:54.013Z,55.93
2022-12-28T23:55:21.979Z,55.83
2022-12-28T23:57:49.901Z,56.77
